Time;durP1;ratioP1;P1;durP2;ratioP2;P2;SDS_P1;SDS_P2;PMS_P1;PMS_P2;Temp;Humidity;BMP_temperature;BMP_pressure;BME280_temperature;BME280_humidity;BME280_pressure;Samples;Min_cycle;Max_cycle;Signal;HPM_P1;HPM_P2
2022/02/06 00:00:07;;;;;;;12.60;5.70;;;2.40;99.70;;;;;;5070845;28;20894;-63
2022/02/06 00:02:36;;;;;;;14.53;4.17;;;2.40;99.70;;;;;;5071862;28;20948;-64
2022/02/06 00:05:05;;;;;;;8.80;3.60;;;2.30;99.70;;;;;;5071654;28;20443;-62
2022/02/06 00:07:33;;;;;;;8.83;3.53;;;2.40;99.70;;;;;;5071797;28;20938;-64
2022/02/06 00:10:00;;;;;;;11.80;3.77;;;2.30;99.70;;;;;;5071738;28;20465;-63
2022/02/06 00:12:27;;;;;;;10.03;3.50;;;2.40;99.70;;;;;;5071677;28;21060;-64
2022/02/06 00:14:54;;;;;;;10.50;3.90;;;2.40;99.70;;;;;;5071445;28;20443;-65
2022/02/06 00:17:21;;;;;;;7.70;3.57;;;2.50;99.70;;;;;;5071406;28;20447;-65
2022/02/06 00:19:48;;;;;;;13.27;3.87;;;2.60;99.70;;;;;;5071313;28;20528;-64
2022/02/06 00:22:27;;;;;;;9.27;3.10;;;2.60;99.70;;;;;;5071508;28;20934;-63
2022/02/06 00:25:10;;;;;;;9.20;2.87;;;2.60;99.70;;;;;;5071255;28;20975;-65
2022/02/06 00:27:47;;;;;;;8.73;2.80;;;2.80;99.70;;;;;;5071301;28;20954;-64
2022/02/06 00:30:22;;;;;;;5.97;2.80;;;2.90;99.70;;;;;;5071415;28;20489;-64
2022/02/06 00:32:54;;;;;;;8.47;2.93;;;3.10;99.70;;;;;;5071414;28;20485;-64
2022/02/06 00:35:33;;;;;;;11.47;2.90;;;3.00;99.70;;;;;;5070865;28;20458;-65
2022/02/06 00:38:11;;;;;;;6.93;2.60;;;3.00;99.70;;;;;;5071286;28;20803;-65
2022/02/06 00:43:20;;;;;;;5.67;2.40;;;3.00;99.70;;;;;;5058292;28;20430;-65
2022/02/06 00:45:47;;;;;;;5.80;2.50;;;2.90;99.70;;;;;;5071007;28;20443;-66
2022/02/06 00:48:19;;;;;;;7.13;2.70;;;3.00;99.70;;;;;;5070984;28;20438;-65
2022/02/06 00:50:50;;;;;;;6.90;2.33;;;3.10;99.70;;;;;;5071235;28;20473;-63
2022/02/06 00:53:18;;;;;;;8.20;2.47;;;3.10;99.70;;;;;;5071212;28;20484;-65
2022/02/06 00:55:46;;;;;;;6.13;2.50;;;3.10;99.70;;;;;;5071009;28;20482;-65
2022/02/06 00:58:13;;;;;;;6.20;2.40;;;3.10;99.70;;;;;;5071325;28;20443;-65
2022/02/06 01:00:40;;;;;;;7.07;2.43;;;3.10;99.70;;;;;;5070446;28;20462;-66
2022/02/06 01:03:07;;;;;;;5.07;2.30;;;3.10;99.70;;;;;;5071276;28;20961;-65
2022/02/06 01:05:33;;;;;;;5.57;2.60;;;3.10;99.70;;;;;;5070840;28;20446;-65
2022/02/06 01:08:00;;;;;;;7.83;2.90;;;3.20;99.70;;;;;;5070880;28;20458;-66
2022/02/06 01:10:27;;;;;;;7.10;2.37;;;3.20;99.70;;;;;;5072261;28;20981;-66
2022/02/06 01:13:00;;;;;;;7.87;2.80;;;3.20;99.70;;;;;;5075123;28;20482;-65
2022/02/06 01:15:31;;;;;;;11.83;2.80;;;3.30;99.70;;;;;;5074976;28;20446;-66
2022/02/06 01:18:02;;;;;;;8.40;2.40;;;3.20;99.70;;;;;;5074899;28;20443;-65
2022/02/06 01:20:33;;;;;;;6.47;2.47;;;3.20;99.70;;;;;;5074896;28;20474;-64
2022/02/06 01:23:05;;;;;;;6.47;2.50;;;3.40;99.70;;;;;;5075081;28;20445;-64
2022/02/06 01:25:37;;;;;;;6.43;2.27;;;3.20;99.70;;;;;;5074731;28;21040;-64
2022/02/06 01:28:09;;;;;;;5.93;2.37;;;3.30;99.70;;;;;;5074736;28;20506;-64
2022/02/06 01:30:45;;;;;;;8.43;3.10;;;3.30;99.70;;;;;;5074772;28;20469;-65
2022/02/06 01:33:16;;;;;;;6.80;2.63;;;3.20;99.70;;;;;;5074874;28;20488;-65
2022/02/06 01:35:49;;;;;;;10.13;2.80;;;3.20;99.70;;;;;;5074128;28;20497;-64
2022/02/06 01:38:20;;;;;;;7.30;2.50;;;3.30;99.70;;;;;;5074406;28;20459;-64
2022/02/06 01:43:41;;;;;;;8.90;2.57;;;3.30;99.70;;;;;;5068164;28;20521;-64
2022/02/06 01:46:26;;;;;;;7.00;2.60;;;3.20;99.70;;;;;;5074433;28;20501;-65
2022/02/06 02:02:53;;;;;;;6.50;2.40;;;3.20;99.70;;;;;;5074417;28;20460;-66
2022/02/06 02:17:08;;;;;;;6.67;2.30;;;3.40;99.70;;;;;;5109059;27;20519;-64
2022/02/06 02:25:38;;;;;;;5.40;1.97;;;3.20;99.70;;;;;;5077211;28;20433;-64
2022/02/06 02:28:32;;;;;;;6.37;1.97;;;3.30;99.70;;;;;;5108795;28;20468;-64
2022/02/06 02:31:22;;;;;;;5.10;2.13;;;3.20;99.70;;;;;;5108933;28;20473;-66
2022/02/06 02:45:11;;;;;;;6.43;2.20;;;3.40;99.70;;;;;;5108854;28;20425;-65
2022/02/06 02:47:40;;;;;;;7.03;2.77;;;3.30;99.70;;;;;;5108506;28;20445;-64
2022/02/06 02:50:12;;;;;;;4.03;1.80;;;3.40;99.70;;;;;;5108497;28;20489;-65
2022/02/06 02:52:53;;;;;;;4.70;1.90;;;3.40;99.70;;;;;;5108578;28;20452;-63
2022/02/06 02:55:36;;;;;;;5.37;2.17;;;3.40;99.70;;;;;;5108308;28;20476;-62
2022/02/06 02:58:18;;;;;;;4.23;2.00;;;3.40;99.70;;;;;;5108251;28;20441;-64
2022/02/06 03:00:52;;;;;;;4.77;2.23;;;3.50;99.70;;;;;;5107607;28;20465;-65
2022/02/06 03:03:23;;;;;;;5.57;2.00;;;3.50;99.70;;;;;;5108530;28;20444;-64
2022/02/06 03:05:52;;;;;;;5.60;2.00;;;3.50;99.70;;;;;;5107984;28;20536;-63
2022/02/06 03:08:20;;;;;;;6.17;2.10;;;3.50;99.70;;;;;;5108049;28;20523;-64
2022/02/06 03:10:51;;;;;;;7.30;2.20;;;3.50;99.70;;;;;;5108226;28;20501;-64
2022/02/06 03:13:20;;;;;;;7.53;2.27;;;3.40;99.70;;;;;;5108063;28;20457;-64
2022/02/06 03:15:51;;;;;;;5.80;2.10;;;3.50;99.70;;;;;;5107797;28;21007;-63
2022/02/06 03:18:20;;;;;;;7.33;3.03;;;3.40;99.70;;;;;;5107745;28;20535;-66
2022/02/06 03:20:49;;;;;;;5.90;1.90;;;3.40;99.70;;;;;;5108015;28;20465;-66
2022/02/06 03:23:16;;;;;;;4.80;1.93;;;3.50;99.70;;;;;;5107978;28;20445;-64
2022/02/06 03:25:49;;;;;;;5.40;1.93;;;3.50;99.70;;;;;;5107711;28;20438;-65
2022/02/06 03:28:18;;;;;;;4.83;1.87;;;3.60;99.70;;;;;;5093635;28;20874;-65
2022/02/06 03:30:44;;;;;;;5.17;2.33;;;3.70;99.70;;;;;;5094265;28;20453;-65
2022/02/06 03:33:12;;;;;;;5.00;1.97;;;3.70;99.70;;;;;;5094161;28;20441;-66
2022/02/06 03:35:39;;;;;;;4.63;1.90;;;3.60;99.70;;;;;;5093592;28;20478;-65
2022/02/06 03:38:07;;;;;;;5.60;2.13;;;3.50;99.70;;;;;;5093886;28;20442;-64
2022/02/06 03:40:40;;;;;;;4.47;2.10;;;3.60;99.70;;;;;;5093971;28;20476;-64
2022/02/06 03:43:13;;;;;;;4.40;1.80;;;3.60;99.70;;;;;;5094077;28;20442;-64
2022/02/06 03:45:44;;;;;;;4.07;2.00;;;3.60;99.70;;;;;;5093655;28;20499;-64
2022/02/06 03:48:15;;;;;;;4.50;2.20;;;3.70;99.70;;;;;;5093660;28;20446;-64
2022/02/06 03:50:47;;;;;;;7.20;2.00;;;3.80;99.70;;;;;;5094041;28;20462;-65
2022/02/06 03:53:17;;;;;;;10.00;2.07;;;3.80;99.70;;;;;;5093828;28;20992;-65
2022/02/06 03:55:44;;;;;;;6.50;2.07;;;3.70;99.70;;;;;;5093468;28;20499;-65
2022/02/06 03:58:11;;;;;;;5.77;1.90;;;3.70;99.70;;;;;;5093440;28;20456;-66
2022/02/06 04:00:38;;;;;;;6.33;1.80;;;3.80;99.70;;;;;;5092810;28;20469;-66
2022/02/06 04:03:06;;;;;;;4.97;2.80;;;4.00;99.70;;;;;;5093631;28;20450;-66
2022/02/06 04:05:33;;;;;;;5.30;1.80;;;4.10;99.70;;;;;;5093276;28;20453;-64
2022/02/06 04:08:00;;;;;;;6.70;2.27;;;3.90;99.70;;;;;;5093296;28;20486;-65
2022/02/06 04:10:34;;;;;;;9.57;2.10;;;4.00;99.70;;;;;;5093416;28;20552;-65
2022/02/06 04:13:02;;;;;;;4.63;1.70;;;3.80;99.70;;;;;;5093467;28;20438;-64
2022/02/06 04:15:38;;;;;;;5.73;2.57;;;3.90;99.70;;;;;;5092934;28;21004;-64
2022/02/06 04:18:13;;;;;;;7.13;2.00;;;4.00;99.70;;;;;;5093202;28;20960;-65
2022/02/06 04:20:40;;;;;;;8.43;1.90;;;4.00;99.70;;;;;;5093313;28;20480;-64
2022/02/06 04:23:07;;;;;;;4.20;2.17;;;4.00;99.70;;;;;;5093266;28;20474;-63
2022/02/06 04:25:34;;;;;;;6.20;2.23;;;4.00;99.70;;;;;;5092856;28;20440;-64
2022/02/06 04:28:01;;;;;;;4.43;2.10;;;4.00;99.70;;;;;;5092963;28;20452;-64
2022/02/06 04:30:28;;;;;;;4.20;2.07;;;4.00;99.70;;;;;;5093010;28;20469;-65
2022/02/06 04:32:55;;;;;;;7.33;2.10;;;4.00;99.70;;;;;;5093182;28;20453;-66
2022/02/06 04:35:27;;;;;;;5.00;2.10;;;4.00;99.70;;;;;;5092123;28;20480;-64
2022/02/06 04:38:07;;;;;;;7.73;2.00;;;3.90;99.70;;;;;;5092001;28;20537;-65
2022/02/06 04:40:48;;;;;;;4.77;1.93;;;3.80;99.70;;;;;;5092948;28;20995;-66
2022/02/06 04:43:41;;;;;;;7.40;2.07;;;3.80;99.70;;;;;;5093011;28;20547;-66
2022/02/06 04:46:50;;;;;;;4.60;2.10;;;3.90;99.70;;;;;;5092521;28;20478;-64
2022/02/06 04:50:01;;;;;;;7.43;2.10;;;3.90;99.70;;;;;;5092291;28;20454;-65
2022/02/06 04:55:45;;;;;;;3.50;1.83;;;4.00;99.70;;;;;;5092236;28;20942;-65
2022/02/06 05:14:58;;;;;;;4.17;1.97;;;4.10;99.70;;;;;;5092193;28;20867;-66
2022/02/06 05:17:46;;;;;;;4.37;1.90;;;4.10;99.70;;;;;;5092039;28;20430;-63
2022/02/06 05:23:11;;;;;;;5.87;1.90;;;4.00;99.70;;;;;;5092191;28;20454;-64
2022/02/06 05:25:55;;;;;;;3.97;1.70;;;4.10;99.70;;;;;;5091702;28;20442;-65
2022/02/06 05:31:08;;;;;;;5.93;2.03;;;4.00;99.70;;;;;;5091434;28;20450;-64
2022/02/06 05:33:36;;;;;;;6.00;2.40;;;4.10;99.70;;;;;;5091698;28;20868;-64
2022/02/06 05:36:04;;;;;;;4.60;2.00;;;4.20;99.70;;;;;;5090942;28;20493;-64
2022/02/06 05:38:31;;;;;;;4.20;1.90;;;4.10;99.70;;;;;;5091703;28;20452;-64
2022/02/06 05:40:59;;;;;;;5.83;1.97;;;4.00;99.70;;;;;;5091775;28;20549;-64
2022/02/06 05:43:26;;;;;;;6.13;1.90;;;4.00;99.70;;;;;;5091725;28;20438;-65
2022/02/06 05:45:53;;;;;;;4.40;2.00;;;4.10;99.70;;;;;;5091355;28;20434;-65
2022/02/06 05:48:20;;;;;;;3.83;1.90;;;4.10;99.70;;;;;;5091397;28;20442;-65
2022/02/06 05:50:46;;;;;;;7.57;2.20;;;4.20;99.70;;;;;;5091163;28;20514;-65
2022/02/06 05:53:16;;;;;;;8.23;2.17;;;4.40;99.70;;;;;;5091085;28;20908;-64
2022/02/06 05:55:43;;;;;;;6.10;2.40;;;4.50;99.70;;;;;;5091110;28;20488;-64
2022/02/06 05:58:11;;;;;;;6.80;2.20;;;4.40;99.70;;;;;;5091297;28;20498;-65
2022/02/06 06:00:38;;;;;;;7.00;2.43;;;4.50;99.70;;;;;;5090010;28;20469;-65
2022/02/06 06:03:06;;;;;;;9.00;2.53;;;4.40;99.70;;;;;;5091512;28;20449;-64
2022/02/06 06:05:33;;;;;;;4.80;2.17;;;4.40;99.70;;;;;;5090978;28;20495;-65
2022/02/06 06:08:00;;;;;;;5.43;2.00;;;4.60;99.70;;;;;;5091138;28;20457;-64
2022/02/06 06:10:27;;;;;;;5.27;2.10;;;4.60;99.70;;;;;;5091288;28;20842;-65
2022/02/06 06:12:54;;;;;;;4.40;2.23;;;4.60;99.70;;;;;;5091269;28;20449;-65
2022/02/06 06:15:23;;;;;;;5.67;2.23;;;4.60;99.70;;;;;;5090811;28;20988;-64
2022/02/06 06:17:49;;;;;;;3.93;1.90;;;4.70;99.70;;;;;;5090874;28;20476;-64
2022/02/06 06:20:19;;;;;;;9.10;2.60;;;4.80;99.70;;;;;;5091095;28;20464;-65
2022/02/06 06:22:47;;;;;;;5.33;2.00;;;4.70;99.70;;;;;;5091398;28;20450;-66
2022/02/06 06:25:14;;;;;;;5.70;2.77;;;4.70;99.70;;;;;;5091147;28;20442;-65
2022/02/06 06:27:41;;;;;;;5.93;2.00;;;4.80;99.70;;;;;;5091017;28;20434;-64
2022/02/06 06:30:09;;;;;;;5.27;2.10;;;4.80;99.70;;;;;;5091236;28;20873;-66
2022/02/06 06:32:37;;;;;;;8.77;2.37;;;4.90;99.70;;;;;;5091220;28;20453;-64
2022/02/06 06:35:06;;;;;;;6.53;1.90;;;4.90;99.70;;;;;;5090408;28;20446;-64
2022/02/06 06:37:33;;;;;;;5.30;2.10;;;4.90;99.70;;;;;;5090951;28;20474;-66
2022/02/06 06:39:59;;;;;;;4.70;2.10;;;4.80;99.70;;;;;;5090786;28;20464;-64
2022/02/06 06:42:26;;;;;;;11.20;2.60;;;4.90;99.70;;;;;;5090992;28;20453;-65
2022/02/06 06:44:53;;;;;;;7.00;1.93;;;4.80;99.70;;;;;;5090759;28;20465;-64
2022/02/06 06:47:20;;;;;;;6.07;2.30;;;4.80;99.70;;;;;;5090889;28;20449;-64
2022/02/06 06:49:48;;;;;;;5.57;2.30;;;5.00;99.70;;;;;;5090826;28;20831;-65
2022/02/06 06:52:15;;;;;;;4.97;2.10;;;5.00;99.70;;;;;;5090799;28;20441;-64
2022/02/06 06:54:45;;;;;;;6.70;2.33;;;5.00;99.70;;;;;;5090874;28;20444;-65
2022/02/06 06:57:17;;;;;;;6.43;2.57;;;5.00;99.70;;;;;;5090769;28;20474;-65
2022/02/06 07:02:29;;;;;;;6.23;2.10;;;5.00;99.70;;;;;;5079695;28;20429;-64
2022/02/06 07:04:58;;;;;;;4.43;1.93;;;5.00;99.70;;;;;;5094514;28;21005;-66
2022/02/06 07:07:26;;;;;;;6.13;2.20;;;5.00;99.70;;;;;;5094677;28;20445;-65
2022/02/06 07:09:53;;;;;;;5.97;2.00;;;5.00;99.70;;;;;;5094589;28;20459;-65
2022/02/06 07:12:20;;;;;;;5.90;2.30;;;5.10;99.70;;;;;;5094710;28;20441;-65
2022/02/06 07:14:48;;;;;;;5.17;2.30;;;5.10;99.70;;;;;;5094269;28;20461;-65
2022/02/06 07:17:16;;;;;;;4.23;2.10;;;5.10;99.70;;;;;;5094345;28;20484;-65
2022/02/06 07:19:43;;;;;;;6.47;2.40;;;5.20;99.70;;;;;;5094354;28;20465;-65
2022/02/06 07:22:15;;;;;;;5.33;2.00;;;5.20;99.70;;;;;;5094623;28;20809;-64
2022/02/06 07:24:42;;;;;;;5.70;2.07;;;5.10;99.70;;;;;;5094535;28;20445;-63
2022/02/06 07:27:19;;;;;;;3.60;2.00;;;5.10;99.70;;;;;;5093950;28;20441;-64
2022/02/06 07:29:46;;;;;;;3.93;1.73;;;5.20;99.70;;;;;;5094113;28;20504;-63
2022/02/06 07:32:13;;;;;;;7.60;2.30;;;5.20;99.70;;;;;;5094248;28;20532;-64
2022/02/06 07:34:40;;;;;;;7.33;2.27;;;5.30;99.70;;;;;;5093701;28;20446;-65
2022/02/06 07:37:07;;;;;;;7.10;2.23;;;5.40;99.70;;;;;;5093640;28;20482;-64
2022/02/06 07:39:35;;;;;;;10.30;2.17;;;5.30;99.70;;;;;;5093875;28;20493;-63
2022/02/06 07:42:03;;;;;;;4.50;1.80;;;5.40;99.70;;;;;;5093909;28;20450;-64
2022/02/06 07:44:29;;;;;;;4.50;2.00;;;5.40;99.70;;;;;;5093943;28;20441;-65
2022/02/06 07:47:02;;;;;;;8.90;3.00;;;5.50;99.70;;;;;;5093501;28;20445;-65
2022/02/06 07:49:29;;;;;;;10.17;2.23;;;5.40;99.70;;;;;;5093708;28;20522;-64
2022/02/06 07:51:55;;;;;;;5.60;2.10;;;5.50;99.70;;;;;;5093551;28;20461;-65
2022/02/06 07:54:22;;;;;;;7.13;2.50;;;5.50;99.70;;;;;;5093425;28;20444;-63
2022/02/06 07:56:50;;;;;;;4.40;1.90;;;5.60;99.70;;;;;;5093065;28;20484;-64
2022/02/06 07:59:17;;;;;;;7.40;2.10;;;5.60;99.70;;;;;;5092939;28;20473;-63
2022/02/06 08:01:44;;;;;;;5.47;1.90;;;5.60;99.70;;;;;;5093414;28;20453;-65
2022/02/06 08:04:10;;;;;;;4.20;1.77;;;5.50;99.70;;;;;;5092902;28;20450;-64
2022/02/06 08:06:37;;;;;;;6.00;2.37;;;5.50;99.70;;;;;;5092150;28;20438;-65
2022/02/06 08:09:04;;;;;;;5.97;1.90;;;5.60;99.70;;;;;;5092364;28;20488;-65
2022/02/06 08:11:35;;;;;;;5.13;2.00;;;5.60;99.70;;;;;;5092819;28;20450;-65
2022/02/06 08:14:03;;;;;;;4.83;2.00;;;5.70;99.70;;;;;;5092976;28;20815;-63
2022/02/06 08:16:30;;;;;;;9.53;2.13;;;5.80;99.70;;;;;;5092621;28;20860;-62
2022/02/06 08:18:58;;;;;;;9.27;1.93;;;5.70;99.70;;;;;;5092463;28;20442;-64
2022/02/06 08:21:25;;;;;;;4.80;2.10;;;5.80;99.70;;;;;;5093001;28;20445;-65
2022/02/06 08:23:52;;;;;;;6.00;1.73;;;5.80;99.70;;;;;;5092864;28;20775;-64
2022/02/06 08:26:19;;;;;;;9.80;2.10;;;5.80;99.70;;;;;;5092836;28;20445;-63
2022/02/06 08:28:46;;;;;;;5.03;2.00;;;5.80;99.70;;;;;;5092536;28;20449;-65
2022/02/06 08:31:14;;;;;;;6.40;2.00;;;5.80;99.70;;;;;;5093005;28;20860;-64
2022/02/06 08:33:40;;;;;;;4.93;1.90;;;5.90;99.70;;;;;;5092522;28;20450;-64
2022/02/06 08:36:07;;;;;;;5.50;2.30;;;6.00;99.70;;;;;;5092110;28;20816;-64
2022/02/06 08:38:34;;;;;;;6.50;2.13;;;6.00;99.70;;;;;;5092452;28;20499;-65
2022/02/06 08:41:01;;;;;;;8.50;2.40;;;6.10;99.70;;;;;;5092582;28;20465;-64
2022/02/06 08:43:27;;;;;;;6.13;2.57;;;6.20;99.70;;;;;;5092256;28;20778;-65
2022/02/06 08:45:54;;;;;;;5.47;2.73;;;6.30;99.70;;;;;;5092310;28;20446;-62
2022/02/06 08:48:22;;;;;;;4.87;2.43;;;6.40;99.70;;;;;;5092168;28;20441;-65
2022/02/06 08:50:49;;;;;;;4.83;2.00;;;6.50;99.70;;;;;;5092373;28;20453;-65
2022/02/06 08:53:15;;;;;;;8.13;2.20;;;6.50;99.70;;;;;;5092273;28;20452;-64
2022/02/06 08:55:48;;;;;;;6.40;2.10;;;6.70;99.70;;;;;;5091517;28;20438;-65
2022/02/06 08:58:15;;;;;;;6.07;2.00;;;6.80;99.70;;;;;;5091983;28;20517;-65
2022/02/06 09:00:42;;;;;;;5.80;1.80;;;7.00;99.70;;;;;;5091764;28;20469;-65
2022/02/06 09:03:08;;;;;;;5.13;1.90;;;6.90;99.70;;;;;;5092446;28;20474;-65
2022/02/06 09:05:37;;;;;;;6.87;2.40;;;6.90;99.70;;;;;;5091890;28;20445;-64
2022/02/06 09:08:05;;;;;;;5.53;2.00;;;6.90;99.70;;;;;;5092015;28;20559;-65
2022/02/06 09:10:32;;;;;;;4.90;2.00;;;6.80;99.70;;;;;;5091812;28;20474;-65
2022/02/06 09:12:59;;;;;;;12.13;2.03;;;6.80;99.70;;;;;;5089371;28;20737;-64
2022/02/06 09:15:26;;;;;;;10.30;2.50;;;6.70;99.70;;;;;;5070369;28;21024;-66
2022/02/06 09:17:53;;;;;;;4.63;2.00;;;6.70;99.70;;;;;;5070674;28;20855;-64
2022/02/06 09:20:20;;;;;;;4.43;1.90;;;6.70;99.70;;;;;;5071609;28;20546;-65
2022/02/06 09:22:48;;;;;;;5.20;2.00;;;6.80;99.70;;;;;;5071795;28;20446;-64
2022/02/06 09:25:16;;;;;;;6.23;1.97;;;6.70;99.70;;;;;;5070757;28;20502;-64
2022/02/06 09:27:44;;;;;;;6.00;1.90;;;6.70;99.70;;;;;;5071381;28;20957;-64
2022/02/06 09:30:15;;;;;;;6.70;2.27;;;6.70;99.70;;;;;;5070937;28;20526;-63
2022/02/06 09:37:35;;;;;;;4.93;1.97;;;6.60;99.70;;;;;;5071454;28;20674;-64
2022/02/06 09:40:04;;;;;;;5.40;1.87;;;6.60;99.70;;;;;;5070989;28;20467;-65
2022/02/06 09:42:31;;;;;;;3.80;1.80;;;6.60;99.70;;;;;;5071056;28;20497;-64
2022/02/06 09:45:00;;;;;;;5.07;2.07;;;6.50;99.70;;;;;;5071044;28;20449;-65
2022/02/06 09:47:29;;;;;;;5.03;2.10;;;6.60;99.70;;;;;;5071186;28;20982;-62
2022/02/06 09:49:56;;;;;;;7.43;2.10;;;6.70;99.70;;;;;;5071000;28;20458;-63
2022/02/06 09:52:25;;;;;;;5.20;1.90;;;6.70;99.70;;;;;;5070899;28;20932;-64
2022/02/06 09:54:53;;;;;;;4.60;2.07;;;6.80;99.70;;;;;;5070094;28;20619;-64
2022/02/06 09:57:26;;;;;;;5.37;1.90;;;6.90;99.70;;;;;;5070887;28;20482;-64
2022/02/06 09:59:54;;;;;;;6.97;2.17;;;6.80;99.70;;;;;;5070609;28;20471;-63
2022/02/06 10:02:25;;;;;;;6.17;1.97;;;6.80;99.70;;;;;;5070890;28;20447;-64
2022/02/06 10:04:54;;;;;;;6.90;1.90;;;7.00;99.70;;;;;;5070532;28;20450;-64
2022/02/06 10:07:28;;;;;;;5.93;1.90;;;7.00;99.70;;;;;;5070178;28;20442;-63
2022/02/06 10:10:01;;;;;;;4.10;2.00;;;6.90;99.70;;;;;;5070880;28;20466;-65
2022/02/06 10:12:35;;;;;;;7.53;2.10;;;7.00;99.70;;;;;;5070995;28;20454;-65
2022/02/06 10:15:02;;;;;;;4.63;1.90;;;7.10;99.70;;;;;;5070466;28;20450;-65
2022/02/06 10:17:29;;;;;;;6.13;2.30;;;7.10;99.70;;;;;;5070360;28;20479;-63
2022/02/06 10:19:58;;;;;;;4.60;2.07;;;7.20;99.70;;;;;;5070934;28;20532;-64
2022/02/06 10:22:29;;;;;;;5.37;1.90;;;7.30;99.70;;;;;;5071006;28;20447;-64
2022/02/06 10:25:02;;;;;;;5.90;2.17;;;7.20;99.70;;;;;;5070694;28;20927;-64
2022/02/06 10:30:43;;;;;;;3.03;1.90;;;7.10;99.70;;;;;;5150488;27;20581;-64
2022/02/06 10:33:12;;;;;;;4.70;1.90;;;7.20;99.70;;;;;;5150228;27;20457;-62
2022/02/06 10:35:40;;;;;;;3.50;1.90;;;7.30;99.70;;;;;;5150039;27;20439;-62
2022/02/06 10:38:18;;;;;;;4.60;1.80;;;7.20;99.70;;;;;;5149987;27;20435;-64
2022/02/06 10:40:46;;;;;;;5.60;1.90;;;7.20;99.70;;;;;;5150211;27;20459;-62
2022/02/06 10:43:13;;;;;;;3.37;1.77;;;7.20;99.70;;;;;;5150010;27;20440;-65
2022/02/06 10:45:41;;;;;;;7.70;2.00;;;7.30;99.70;;;;;;5149771;27;20455;-65
2022/02/06 10:48:21;;;;;;;4.33;2.47;;;7.30;99.70;;;;;;5149559;27;20811;-65
2022/02/06 10:50:48;;;;;;;4.70;1.60;;;7.30;99.70;;;;;;5149847;27;20485;-63
2022/02/06 10:53:16;;;;;;;3.70;1.80;;;7.30;99.70;;;;;;5149946;27;20436;-64
2022/02/06 10:55:56;;;;;;;3.63;1.77;;;7.30;99.70;;;;;;5149464;27;20828;-62
2022/02/06 10:58:28;;;;;;;4.93;1.60;;;7.30;99.70;;;;;;5149600;27;20443;-64
2022/02/06 11:00:56;;;;;;;6.03;1.90;;;7.30;99.70;;;;;;5149302;27;20463;-65
2022/02/06 11:03:29;;;;;;;5.47;2.03;;;7.40;99.70;;;;;;5149636;27;20443;-62
2022/02/06 11:06:06;;;;;;;3.53;1.90;;;7.50;99.70;;;;;;5149390;27;20791;-62
2022/02/06 11:08:34;;;;;;;3.70;1.50;;;7.50;99.70;;;;;;5149264;27;20475;-65
2022/02/06 11:11:03;;;;;;;3.97;2.00;;;7.50;99.70;;;;;;5149635;27;20463;-64
2022/02/06 11:13:31;;;;;;;4.47;2.10;;;7.50;99.70;;;;;;5149380;27;20463;-63
2022/02/06 11:16:03;;;;;;;7.47;1.80;;;7.60;99.70;;;;;;5149250;27;20923;-62
2022/02/06 11:18:39;;;;;;;4.73;1.80;;;7.60;99.70;;;;;;5148507;27;20821;-64
2022/02/06 11:21:07;;;;;;;5.43;1.80;;;7.60;99.70;;;;;;5150348;27;20498;-64
2022/02/06 11:23:48;;;;;;;5.40;1.97;;;7.50;99.70;;;;;;5149255;27;20435;-64
2022/02/06 11:26:17;;;;;;;7.43;2.17;;;7.50;99.70;;;;;;5149097;27;20446;-64
2022/02/06 11:28:44;;;;;;;5.13;1.80;;;7.50;99.70;;;;;;5148762;27;20478;-62
2022/02/06 11:31:12;;;;;;;2.97;1.67;;;7.50;99.70;;;;;;5149247;27;20934;-64
2022/02/06 11:33:39;;;;;;;5.13;1.97;;;7.60;99.70;;;;;;5149083;27;20444;-65
2022/02/06 11:36:12;;;;;;;5.50;1.93;;;7.60;99.70;;;;;;5148881;27;20443;-64
2022/02/06 11:44:52;;;;;;;4.40;1.97;;;7.60;99.70;;;;;;5135389;27;20446;-63
2022/02/06 11:47:23;;;;;;;4.20;1.90;;;7.60;99.70;;;;;;5134987;27;20440;-64
2022/02/06 11:49:53;;;;;;;3.10;1.70;;;7.60;99.70;;;;;;5134852;27;20483;-63
2022/02/06 11:52:20;;;;;;;4.10;1.73;;;7.60;99.70;;;;;;5135122;27;20445;-65
2022/02/06 11:54:49;;;;;;;4.67;1.83;;;7.70;99.70;;;;;;5134781;27;20804;-63
2022/02/06 11:57:20;;;;;;;5.10;1.90;;;7.70;99.70;;;;;;5134831;27;20958;-65
2022/02/06 12:00:14;;;;;;;3.50;1.77;;;7.70;99.70;;;;;;5134262;27;20467;-65
2022/02/06 12:02:43;;;;;;;4.40;1.80;;;7.70;99.70;;;;;;5134762;27;20444;-64
2022/02/06 12:05:18;;;;;;;7.27;2.30;;;7.60;99.70;;;;;;5134518;27;20448;-64
2022/02/06 12:08:06;;;;;;;4.40;1.80;;;7.60;99.70;;;;;;5134629;27;20825;-64
2022/02/06 12:11:11;;;;;;;8.60;3.37;;;7.70;99.70;;;;;;5134465;27;20487;-65
2022/02/06 12:13:38;;;;;;;5.20;2.47;;;7.70;99.70;;;;;;5134636;27;20452;-64
2022/02/06 12:16:07;;;;;;;7.77;2.80;;;7.70;99.70;;;;;;5134263;27;20526;-65
2022/02/06 12:18:37;;;;;;;5.43;2.20;;;7.70;99.70;;;;;;5133313;27;20447;-64
2022/02/06 12:21:12;;;;;;;5.77;2.13;;;7.70;99.70;;;;;;5134367;27;20823;-64
2022/02/06 12:23:44;;;;;;;5.03;2.20;;;7.70;99.70;;;;;;5134441;27;21025;-64
2022/02/06 12:26:41;;;;;;;5.20;2.20;;;7.70;99.70;;;;;;5134119;27;20475;-63
2022/02/06 12:29:11;;;;;;;5.73;2.30;;;7.70;99.70;;;;;;5133854;27;20571;-64
2022/02/06 12:31:47;;;;;;;6.07;2.03;;;7.70;99.70;;;;;;5134484;27;20432;-64
2022/02/06 12:36:56;;;;;;;3.57;1.90;;;7.70;99.70;;;;;;5134266;27;20452;-64
2022/02/06 12:37:32;;;;;;;4.60;2.00;;;7.60;99.70;;;;;;5133819;27;20539;-64
2022/02/06 12:40:04;;;;;;;4.10;2.00;;;7.60;99.70;;;;;;5133954;27;20452;-64
2022/02/06 12:42:33;;;;;;;5.10;2.30;;;7.60;99.70;;;;;;5134040;27;20784;-64
2022/02/06 12:45:02;;;;;;;5.73;2.00;;;7.70;99.70;;;;;;5133752;27;20451;-64
2022/02/06 12:47:31;;;;;;;4.50;2.17;;;7.70;99.70;;;;;;5133744;27;20432;-65
2022/02/06 12:49:59;;;;;;;5.50;2.40;;;7.70;99.70;;;;;;5133484;27;20486;-64
2022/02/06 12:52:26;;;;;;;5.90;2.73;;;7.80;99.70;;;;;;5132804;27;20823;-64
2022/02/06 12:54:53;;;;;;;4.60;1.83;;;7.90;99.70;;;;;;5133620;27;20827;-62
2022/02/06 12:57:20;;;;;;;4.50;1.63;;;7.90;99.70;;;;;;5133739;27;20444;-64
2022/02/06 12:59:49;;;;;;;5.07;2.13;;;7.80;99.70;;;;;;5133159;27;20533;-65
2022/02/06 13:02:23;;;;;;;4.10;2.50;;;7.80;99.70;;;;;;5133783;27;20443;-63
2022/02/06 13:05:02;;;;;;;4.50;2.10;;;7.80;99.70;;;;;;5133375;27;20444;-64
2022/02/06 13:07:30;;;;;;;5.63;2.10;;;7.80;99.70;;;;;;5133391;27;20451;-65
2022/02/06 13:10:05;;;;;;;4.13;1.80;;;7.80;99.70;;;;;;5133216;27;20480;-61
2022/02/06 13:12:38;;;;;;;4.63;1.60;;;7.90;99.70;;;;;;5133529;27;20447;-64
2022/02/06 13:15:34;;;;;;;4.67;1.93;;;7.90;99.70;;;;;;5133067;27;20444;-64
2022/02/06 13:21:07;;;;;;;3.40;1.63;;;8.00;99.70;;;;;;5132750;27;20444;-65
2022/02/06 13:26:36;;;;;;;3.63;1.60;;;7.90;99.70;;;;;;5130834;27;20540;-64
2022/02/06 13:29:13;;;;;;;4.40;2.07;;;7.90;99.70;;;;;;5132640;27;20477;-63
2022/02/06 13:32:00;;;;;;;5.03;2.30;;;7.90;99.70;;;;;;5116525;27;21067;-65
2022/02/06 13:34:41;;;;;;;5.50;2.50;;;7.80;99.70;;;;;;5122631;27;20456;-64
2022/02/06 13:37:21;;;;;;;4.17;2.03;;;7.80;99.70;;;;;;5129185;27;20532;-64
2022/02/06 13:39:53;;;;;;;4.60;2.47;;;7.80;99.70;;;;;;5122226;27;20464;-64
2022/02/06 13:42:22;;;;;;;8.77;2.77;;;7.70;99.70;;;;;;5126291;27;20459;-64
2022/02/06 13:45:06;;;;;;;8.00;2.40;;;7.70;99.70;;;;;;5124002;27;20468;-62
2022/02/06 13:47:35;;;;;;;4.33;1.70;;;7.70;99.70;;;;;;5130945;27;20449;-65
2022/02/06 13:50:02;;;;;;;4.47;1.80;;;7.60;99.70;;;;;;5132498;27;20491;-62
2022/02/06 13:52:30;;;;;;;2.80;1.70;;;7.70;99.70;;;;;;5132553;27;20520;-65
2022/02/06 13:54:57;;;;;;;3.00;1.60;;;7.70;99.70;;;;;;5132365;27;20668;-63
2022/02/06 13:57:26;;;;;;;4.53;2.07;;;7.70;99.70;;;;;;5132446;27;20951;-64
2022/02/06 13:59:53;;;;;;;3.43;1.60;;;7.70;99.70;;;;;;5119118;27;21009;-64
2022/02/06 14:02:20;;;;;;;3.20;1.57;;;7.70;99.70;;;;;;5116110;27;20897;-64
2022/02/06 14:04:50;;;;;;;3.57;1.70;;;7.70;99.70;;;;;;5131695;27;20444;-60
2022/02/06 14:07:21;;;;;;;4.70;1.57;;;7.70;99.70;;;;;;5132406;27;20444;-65
2022/02/06 14:10:03;;;;;;;4.23;1.73;;;7.70;99.70;;;;;;5132337;27;20823;-65
2022/02/06 14:12:30;;;;;;;2.37;1.40;;;7.70;99.70;;;;;;5123789;27;20449;-64
2022/02/06 14:14:58;;;;;;;2.70;1.33;;;7.60;99.70;;;;;;5116284;27;20463;-64
2022/02/06 14:17:27;;;;;;;4.27;1.53;;;7.50;99.70;;;;;;5121810;27;20962;-64
2022/02/06 14:19:57;;;;;;;3.00;1.50;;;7.40;99.70;;;;;;5117608;27;20448;-65
2022/02/06 14:22:33;;;;;;;3.30;1.60;;;7.30;99.70;;;;;;5122623;27;20476;-63
2022/02/06 14:25:04;;;;;;;3.10;1.70;;;7.30;99.70;;;;;;5124705;27;20433;-64
2022/02/06 14:27:33;;;;;;;3.23;1.50;;;7.30;99.70;;;;;;5123699;28;20471;-64
2022/02/06 14:30:11;;;;;;;2.53;1.47;;;7.30;99.70;;;;;;5131787;27;20479;-65
2022/02/06 14:32:58;;;;;;;3.93;1.70;;;7.20;99.70;;;;;;5129696;27;21038;-65
2022/02/06 14:35:28;;;;;;;3.67;1.40;;;7.20;99.70;;;;;;5131872;27;20521;-65
2022/02/06 14:37:58;;;;;;;4.23;1.50;;;7.10;99.70;;;;;;5131966;27;20451;-64
2022/02/06 14:40:36;;;;;;;4.10;1.60;;;7.10;99.70;;;;;;5131964;27;20460;-65
2022/02/06 14:43:11;;;;;;;3.17;1.50;;;7.10;99.70;;;;;;5132361;27;20923;-64
2022/02/06 14:45:44;;;;;;;3.10;1.50;;;7.00;99.70;;;;;;5131863;27;20451;-65
2022/02/06 14:48:11;;;;;;;4.90;1.40;;;7.00;99.70;;;;;;5111605;27;20457;-65
2022/02/06 14:50:38;;;;;;;2.80;1.57;;;7.00;99.70;;;;;;5111342;28;20492;-64
2022/02/06 14:53:04;;;;;;;3.70;1.30;;;6.90;99.70;;;;;;5111619;28;20444;-64